• Join FlightAware (Why Join?)
  • Login
  • US Flag 
09:19PM EST


 

Airport Tracker/Info


-or-


 

Live Flight TrackerFlight Track Log ✈ N612CT ✈ 11-Sep-2013 ✈ KBOW - KAPF

Flight Track Log - Related Links

Times and Time Zones

All times are in EDT time to prevent confusion due to time zone crossing. See the N612CT flight status page for this flight to view local times or setup timezone preferences in your user account.

Time Position Orientation Groundspeed Altitude Reporting Facility
EDT Latitude Longitude Course Direction KTS MPH feet Rate Location/Type
08:51AM 27.8833 -81.7333 183° South 144 166 2,400  Level Tampa TRACON
08:52AM 27.8339 -81.7358 183° South 79 91 3,500 720 Climbing Miami Center
08:53AM 27.7944 -81.7319 175° South 109 125 4,300 720 Climbing Miami Center
08:54AM 27.7547 -81.7325 181° South 150 173 5,000 300 Climbing Miami Center
08:55AM 27.7153 -81.7261 172° South 156 180 5,000  Level Miami Center
08:56AM 27.6633 -81.7192 173° South 163 188 5,000  Level Miami Center
08:57AM 27.6175 -81.7150 175° South 168 193 5,000  Level Miami Center
08:58AM 27.5761 -81.7086 172° South 168 193 5,000  Level Miami Center
08:59AM 27.5261 -81.7042 175° South 174 200 5,000  Level Miami Center
09:00AM 27.4806 -81.6975 173° South 169 194 5,000  Level Miami Center
09:01AM 27.4347 -81.6931 175° South 169 194 5,000  Level Miami Center
09:02AM 27.3911 -81.6867 173° South 169 194 5,000  Level Miami Center
09:03AM 27.3433 -81.6800 173° South 169 194 5,000  Level Miami Center
09:04AM 27.2975 -81.6733 173° South 169 194 5,000  Level Miami Center
09:05AM 27.2517 -81.6692 175° South 164 189 5,000  Level Miami Center
09:06AM 27.2061 -81.6625 173° South 164 189 5,000  Level Miami Center
09:07AM 27.1603 -81.6561 173° South 164 189 5,000  Level Miami Center
09:08AM 27.1147 -81.6494 173° South 164 189 5,000  Level Miami Center
09:09AM 27.0711 -81.6431 173° South 164 189 5,000  Level Miami Center
09:10AM 27.0272 -81.6411 178° South 158 182 5,000  Level Miami Center
09:11AM 26.9792 -81.6461 185° South 164 189 5,000  Level Miami Center
09:12AM 26.9353 -81.6492 184° South 169 194 5,000  Level Miami Center
09:14AM 26.8777 -81.6508 188° South  Level FlightAware Approximate
09:21AM 26.5790 -81.6952 188° South  Level FlightAware Approximate
09:22AM 26.5363 -81.7015 188° South  Level FlightAware Approximate
09:23AM 26.4936 -81.7078 188° South  Level FlightAware Approximate
09:24AM 26.4509 -81.7141 188° South  Level FlightAware Approximate
09:25AM 26.4083 -81.7208 189° South  Level FlightAware Approximate
09:26AM 26.3658 -81.7279 189° South  Level FlightAware Approximate
09:27AM 26.3232 -81.7350 188° South  Level FlightAware Approximate
09:28AM 26.2806 -81.7421 188° South  Level FlightAware Approximate
09:29AM 26.2380 -81.7492 188° South  Level FlightAware Approximate
09:30AM 26.1956 -81.7575 190° South  Level FlightAware Approximate
09:31AM 26.1533 -81.7660 190° South  Level FlightAware Approximate
09:32AM 26.1500 -81.7667 190° South  Level FlightAware Approximate
09:33AM 26.1524 -81.7756 190° South  Level Estimated
09:34AM 26.1524 -81.7756 190° South  Level Estimated
09:35AM 26.1524 -81.7756 190° South  Level Estimated
09:36AM 26.1524 -81.7756 190° South  Level Estimated
09:37AM 26.1524 -81.7756 190° South  Level Estimated
09:38AM 26.1524 -81.7756 190° South  Level Estimated
09:39AM 26.1524 -81.7756 190° South  Level Estimated
09:40AM 26.1524 -81.7756 190° South  Level Estimated